sensor_id;sensor_type;location;lat;lon;timestamp;pressure;altitude;pressure_sealevel;temperature;humidity
77537;BME280;67783;51.656;16.106;2023-07-30T00:00:11;100977.51;;;19.71;71.00
77537;BME280;67783;51.656;16.106;2023-07-30T00:03:17;100988.91;;;19.74;68.83
77537;BME280;67783;51.656;16.106;2023-07-30T00:06:22;100975.45;;;19.73;69.22
77537;BME280;67783;51.656;16.106;2023-07-30T00:09:25;100985.32;;;19.74;68.87
77537;BME280;67783;51.656;16.106;2023-07-30T00:12:30;100988.05;;;19.74;69.08
77537;BME280;67783;51.656;16.106;2023-07-30T00:15:37;100990.77;;;19.74;70.84
77537;BME280;67783;51.656;16.106;2023-07-30T00:18:39;100989.43;;;19.78;68.93
77537;BME280;67783;51.656;16.106;2023-07-30T00:21:49;100983.13;;;19.77;69.36
77537;BME280;67783;51.656;16.106;2023-07-30T00:25:01;100993.00;;;19.78;70.73
77537;BME280;67783;51.656;16.106;2023-07-30T00:28:04;100990.80;;;19.82;68.83
77537;BME280;67783;51.656;16.106;2023-07-30T00:31:10;100987.38;;;19.80;69.19
77537;BME280;67783;51.656;16.106;2023-07-30T00:34:12;100984.50;;;19.81;68.75
77537;BME280;67783;51.656;16.106;2023-07-30T00:37:13;100994.86;;;19.78;68.93
77537;BME280;67783;51.656;16.106;2023-07-30T00:40:22;100983.62;;;19.73;70.50
77537;BME280;67783;51.656;16.106;2023-07-30T00:43:23;100987.19;;;19.73;68.98
77537;BME280;67783;51.656;16.106;2023-07-30T00:46:25;100997.55;;;19.70;69.51
77537;BME280;67783;51.656;16.106;2023-07-30T00:49:29;101004.00;;;19.69;68.86
77537;BME280;67783;51.656;16.106;2023-07-30T00:52:32;101008.77;;;19.67;69.25
77537;BME280;67783;51.656;16.106;2023-07-30T00:55:42;101013.16;;;19.68;70.62
77537;BME280;67783;51.656;16.106;2023-07-30T00:58:47;101015.74;;;19.69;68.96
77537;BME280;67783;51.656;16.106;2023-07-30T01:01:51;101017.09;;;19.65;69.46
77537;BME280;67783;51.656;16.106;2023-07-30T01:04:53;101015.89;;;19.68;68.90
77537;BME280;67783;51.656;16.106;2023-07-30T01:07:57;101017.09;;;19.65;69.17
77537;BME280;67783;51.656;16.106;2023-07-30T01:11:06;101021.14;;;19.61;70.66
77537;BME280;67783;51.656;16.106;2023-07-30T01:14:09;101018.43;;;19.61;69.04
77537;BME280;67783;51.656;16.106;2023-07-30T01:17:12;101007.02;;;19.58;69.44
77537;BME280;67783;51.656;16.106;2023-07-30T01:20:14;101011.60;;;19.57;69.04
77537;BME280;67783;51.656;16.106;2023-07-30T01:23:15;101011.74;;;19.56;69.28
77537;BME280;67783;51.656;16.106;2023-07-30T01:32:50;101016.81;;;19.51;69.33
77537;BME280;67783;51.656;16.106;2023-07-30T01:35:55;101012.41;;;19.50;70.52
77537;BME280;67783;51.656;16.106;2023-07-30T01:38:59;101019.53;;;19.51;69.01
77537;BME280;67783;51.656;16.106;2023-07-30T01:42:01;101019.86;;;19.48;69.58
77537;BME280;67783;51.656;16.106;2023-07-30T01:45:04;101020.58;;;19.50;69.08
77537;BME280;67783;51.656;16.106;2023-07-30T01:48:11;101023.44;;;19.48;69.35
77537;BME280;67783;51.656;16.106;2023-07-30T01:51:14;101022.05;;;19.44;70.59
77537;BME280;67783;51.656;16.106;2023-07-30T01:54:16;101025.64;;;19.45;69.24
77537;BME280;67783;51.656;16.106;2023-07-30T01:57:17;101020.20;;;19.45;69.75
77537;BME280;67783;51.656;16.106;2023-07-30T02:00:19;101018.01;;;19.48;69.14
77537;BME280;67783;51.656;16.106;2023-07-30T02:03:20;101023.59;;;19.47;69.39
77537;BME280;67783;51.656;16.106;2023-07-30T02:06:22;101019.86;;;19.48;69.05
77537;BME280;67783;51.656;16.106;2023-07-30T02:09:23;101025.16;;;19.49;69.21
77537;BME280;67783;51.656;16.106;2023-07-30T02:12:29;101027.17;;;19.47;70.40
77537;BME280;67783;51.656;16.106;2023-07-30T02:15:30;101027.02;;;19.49;69.08
77537;BME280;67783;51.656;16.106;2023-07-30T02:18:32;101019.01;;;19.47;69.52
77537;BME280;67783;51.656;16.106;2023-07-30T02:21:33;101021.58;;;19.49;68.93
77537;BME280;67783;51.656;16.106;2023-07-30T02:24:39;101025.30;;;19.48;69.09
77537;BME280;67783;51.656;16.106;2023-07-30T02:27:49;101039.08;;;19.46;70.23
77537;BME280;67783;51.656;16.106;2023-07-30T02:30:51;101041.63;;;19.48;68.91
77537;BME280;67783;51.656;16.106;2023-07-30T02:33:52;101041.25;;;19.43;69.38
77537;BME280;67783;51.656;16.106;2023-07-30T02:37:02;101038.52;;;19.43;69.00
77537;BME280;67783;51.656;16.106;2023-07-30T02:40:05;101039.68;;;19.40;69.15
77537;BME280;67783;51.656;16.106;2023-07-30T02:43:10;101037.28;;;19.37;70.36
77537;BME280;67783;51.656;16.106;2023-07-30T02:46:11;101047.98;;;19.38;69.05
77537;BME280;67783;51.656;16.106;2023-07-30T02:49:13;101046.30;;;19.38;69.49
77537;BME280;67783;51.656;16.106;2023-07-30T02:52:14;101049.02;;;19.38;68.97
77537;BME280;67783;51.656;16.106;2023-07-30T02:55:16;101054.75;;;19.34;69.27
77537;BME280;67783;51.656;16.106;2023-07-30T02:58:18;101039.14;;;19.36;68.91
77537;BME280;67783;51.656;16.106;2023-07-30T03:01:19;101045.45;;;19.37;69.01
77537;BME280;67783;51.656;16.106;2023-07-30T03:04:24;101053.42;;;19.38;69.91
77537;BME280;67783;51.656;16.106;2023-07-30T03:07:27;101051.12;;;19.44;68.81
77537;BME280;67783;51.656;16.106;2023-07-30T03:10:29;101048.54;;;19.42;69.09
77537;BME280;67783;51.656;16.106;2023-07-30T03:13:31;101053.69;;;19.45;68.73
77537;BME280;67783;51.656;16.106;2023-07-30T03:16:32;101061.98;;;19.44;68.88
77537;BME280;67783;51.656;16.106;2023-07-30T03:19:34;101062.70;;;19.46;68.60
77537;BME280;67783;51.656;16.106;2023-07-30T03:22:35;101058.27;;;19.45;68.66
77537;BME280;67783;51.656;16.106;2023-07-30T03:25:40;101061.98;;;19.44;69.59
77537;BME280;67783;51.656;16.106;2023-07-30T03:28:42;101067.09;;;19.47;68.58
77537;BME280;67783;51.656;16.106;2023-07-30T03:31:43;101076.30;;;19.46;68.92
77537;BME280;67783;51.656;16.106;2023-07-30T03:34:45;101068.66;;;19.49;68.47
77537;BME280;67783;51.656;16.106;2023-07-30T03:37:46;101070.52;;;19.49;68.65
77537;BME280;67783;51.656;16.106;2023-07-30T03:40:48;101071.05;;;19.52;68.38
77537;BME280;67783;51.656;16.106;2023-07-30T03:43:49;101070.52;;;19.49;68.51
77537;BME280;67783;51.656;16.106;2023-07-30T03:46:55;101075.10;;;19.48;69.18
77537;BME280;67783;51.656;16.106;2023-07-30T03:49:56;101065.77;;;19.51;68.39
77537;BME280;67783;51.656;16.106;2023-07-30T03:52:58;101073.78;;;19.52;68.60
77537;BME280;67783;51.656;16.106;2023-07-30T03:56:05;101073.05;;;19.76;68.35
77537;BME280;67783;51.656;16.106;2023-07-30T03:59:06;101063.88;;;20.61;66.76
77537;BME280;67783;51.656;16.106;2023-07-30T04:02:15;101065.61;;;21.10;64.66
77537;BME280;67783;51.656;16.106;2023-07-30T04:05:17;101072.46;;;21.23;64.97
77537;BME280;67783;51.656;16.106;2023-07-30T04:08:18;101070.07;;;21.36;64.57
77537;BME280;67783;51.656;16.106;2023-07-30T04:11:20;101077.50;;;21.58;64.58
77537;BME280;67783;51.656;16.106;2023-07-30T04:14:22;101078.81;;;21.78;63.91
77537;BME280;67783;51.656;16.106;2023-07-30T04:17:23;101076.23;;;22.01;63.66
77537;BME280;67783;51.656;16.106;2023-07-30T04:20:25;101080.77;;;22.17;63.21
77537;BME280;67783;51.656;16.106;2023-07-30T04:23:33;101086.48;;;22.38;61.17
77537;BME280;67783;51.656;16.106;2023-07-30T04:26:38;101087.55;;;22.60;62.27
77537;BME280;67783;51.656;16.106;2023-07-30T04:29:39;101092.57;;;22.79;61.50
77537;BME280;67783;51.656;16.106;2023-07-30T04:32:56;101096.72;;;22.97;59.59
77537;BME280;67783;51.656;16.106;2023-07-30T04:35:59;101113.01;;;23.14;60.97
77537;BME280;67783;51.656;16.106;2023-07-30T04:39:03;101107.97;;;23.40;59.90
77537;BME280;67783;51.656;16.106;2023-07-30T04:44:06;101107.33;;;23.75;59.73
77537;BME280;67783;51.656;16.106;2023-07-30T04:47:27;101105.44;;;23.90;59.22
77537;BME280;67783;51.656;16.106;2023-07-30T04:51:21;101101.40;;;24.01;58.77
77537;BME280;67783;51.656;16.106;2023-07-30T04:58:00;101109.98;;;24.13;58.20
77537;BME280;67783;51.656;16.106;2023-07-30T05:04:40;101105.46;;;24.20;55.60
77537;BME280;67783;51.656;16.106;2023-07-30T05:08:11;101094.79;;;24.25;55.38
77537;BME280;67783;51.656;16.106;2023-07-30T05:11:48;101098.78;;;24.22;55.27
77537;BME280;67783;51.656;16.106;2023-07-30T05:15:06;101096.21;;;24.21;57.84
77537;BME280;67783;51.656;16.106;2023-07-30T05:18:30;101097.81;;;24.15;57.76
77537;BME280;67783;51.656;16.106;2023-07-30T05:21:56;101098.17;;;24.12;57.66
77537;BME280;67783;51.656;16.106;2023-07-30T05:28:59;101112.36;;;24.16;57.63
77537;BME280;67783;51.656;16.106;2023-07-30T05:35:40;101117.17;;;24.14;56.28
77537;BME280;67783;51.656;16.106;2023-07-30T05:38:54;101117.52;;;24.11;57.81
77537;BME280;67783;51.656;16.106;2023-07-30T05:41:58;101132.63;;;24.07;57.79
77537;BME280;67783;51.656;16.106;2023-07-30T05:45:02;101133.88;;;24.04;56.66
77537;BME280;67783;51.656;16.106;2023-07-30T05:48:07;101122.45;;;24.01;57.92
77537;BME280;67783;51.656;16.106;2023-07-30T05:51:17;101127.25;;;23.99;57.85
77537;BME280;67783;51.656;16.106;2023-07-30T05:54:48;101131.32;;;24.03;57.63
77537;BME280;67783;51.656;16.106;2023-07-30T06:01:16;101118.77;;;24.08;57.92
77537;BME280;67783;51.656;16.106;2023-07-30T06:04:43;101127.16;;;24.07;57.85
77537;BME280;67783;51.656;16.106;2023-07-30T06:07:57;101117.83;;;24.01;57.75
77537;BME280;67783;51.656;16.106;2023-07-30T06:11:36;101123.66;;;23.98;57.93
77537;BME280;67783;51.656;16.106;2023-07-30T06:14:39;101116.86;;;23.94;57.48
77537;BME280;67783;51.656;16.106;2023-07-30T06:21:19;101117.71;;;23.95;58.10
77537;BME280;67783;51.656;16.106;2023-07-30T06:24:26;101119.81;;;23.93;57.79
77537;BME280;67783;51.656;16.106;2023-07-30T06:27:28;101122.84;;;23.98;58.26
77537;BME280;67783;51.656;16.106;2023-07-30T06:30:35;101126.23;;;24.00;58.25
77537;BME280;67783;51.656;16.106;2023-07-30T06:33:59;101121.13;;;23.97;57.50
77537;BME280;67783;51.656;16.106;2023-07-30T06:37:00;101129.63;;;24.02;58.27
77537;BME280;67783;51.656;16.106;2023-07-30T06:40:08;101137.09;;;24.08;58.18
77537;BME280;67783;51.656;16.106;2023-07-30T06:43:16;101141.15;;;24.12;57.45
77537;BME280;67783;51.656;16.106;2023-07-30T06:46:21;101142.11;;;24.19;58.08
77537;BME280;67783;51.656;16.106;2023-07-30T06:49:31;101149.13;;;24.21;57.94
77537;BME280;67783;51.656;16.106;2023-07-30T06:52:38;101143.44;;;24.23;57.24
77537;BME280;67783;51.656;16.106;2023-07-30T06:55:48;101143.55;;;24.29;57.93
77537;BME280;67783;51.656;16.106;2023-07-30T06:58:56;101147.21;;;24.36;57.82
77537;BME280;67783;51.656;16.106;2023-07-30T07:02:05;101142.88;;;24.42;56.30
77537;BME280;67783;51.656;16.106;2023-07-30T07:05:10;101145.51;;;24.50;57.52
77537;BME280;67783;51.656;16.106;2023-07-30T07:08:18;101146.61;;;24.56;57.20
77537;BME280;67783;51.656;16.106;2023-07-30T07:11:20;101146.32;;;24.65;57.11
77537;BME280;67783;51.656;16.106;2023-07-30T07:14:25;101148.30;;;24.71;56.96
77537;BME280;67783;51.656;16.106;2023-07-30T07:17:28;101149.23;;;24.78;55.73
77537;BME280;67783;51.656;16.106;2023-07-30T07:20:42;101149.68;;;24.82;56.69
77537;BME280;67783;51.656;16.106;2023-07-30T07:23:49;101150.54;;;24.82;56.54
77537;BME280;67783;51.656;16.106;2023-07-30T07:27:02;101146.39;;;24.87;56.12
77537;BME280;67783;51.656;16.106;2023-07-30T07:30:07;101140.33;;;24.91;56.58
77537;BME280;67783;51.656;16.106;2023-07-30T07:33:12;101143.34;;;24.96;56.34
77537;BME280;67783;51.656;16.106;2023-07-30T07:36:20;101151.00;;;25.01;55.24
77537;BME280;67783;51.656;16.106;2023-07-30T07:39:22;101159.73;;;25.11;56.12
77537;BME280;67783;51.656;16.106;2023-07-30T07:42:27;101138.70;;;25.18;55.53
77537;BME280;67783;51.656;16.106;2023-07-30T07:45:37;101143.95;;;25.34;55.67
77537;BME280;67783;51.656;16.106;2023-07-30T07:48:42;101138.55;;;25.47;55.21
77537;BME280;67783;51.656;16.106;2023-07-30T07:51:46;101140.55;;;25.53;52.89
77537;BME280;67783;51.656;16.106;2023-07-30T07:54:54;101137.66;;;25.61;54.87
77537;BME280;67783;51.656;16.106;2023-07-30T07:57:56;101133.65;;;25.64;54.44
77537;BME280;67783;51.656;16.106;2023-07-30T08:00:59;101130.76;;;25.72;54.35
77537;BME280;67783;51.656;16.106;2023-07-30T08:04:16;101123.62;;;25.78;54.22
77537;BME280;67783;51.656;16.106;2023-07-30T08:07:25;101130.85;;;25.85;52.78
77537;BME280;67783;51.656;16.106;2023-07-30T08:10:27;101125.86;;;25.95;53.76
77537;BME280;67783;51.656;16.106;2023-07-30T08:13:34;101125.10;;;26.08;53.08
77537;BME280;67783;51.656;16.106;2023-07-30T08:24:03;101121.11;;;26.51;49.27
77537;BME280;67783;51.656;16.106;2023-07-30T08:27:36;101125.63;;;26.72;49.42
77537;BME280;67783;51.656;16.106;2023-07-30T08:31:25;101123.34;;;26.82;48.98
77537;BME280;67783;51.656;16.106;2023-07-30T08:34:46;101125.94;;;26.97;47.43
77537;BME280;67783;51.656;16.106;2023-07-30T08:41:43;101122.19;;;27.24;46.58
77537;BME280;67783;51.656;16.106;2023-07-30T08:51:26;101121.77;;;27.40;47.88
77537;BME280;67783;51.656;16.106;2023-07-30T08:54:57;101123.90;;;27.58;46.22
77537;BME280;67783;51.656;16.106;2023-07-30T08:58:18;101123.92;;;27.65;44.75
77537;BME280;67783;51.656;16.106;2023-07-30T09:01:40;101122.42;;;27.82;48.23
77537;BME280;67783;51.656;16.106;2023-07-30T09:05:06;101123.90;;;27.91;47.72
77537;BME280;67783;51.656;16.106;2023-07-30T09:08:22;101127.89;;;28.02;47.07
77537;BME280;67783;51.656;16.106;2023-07-30T09:11:43;101127.45;;;28.05;44.28
77537;BME280;67783;51.656;16.106;2023-07-30T09:15:09;101120.47;;;28.02;43.65
77537;BME280;67783;51.656;16.106;2023-07-30T09:18:21;101128.09;;;28.00;46.84
77537;BME280;67783;51.656;16.106;2023-07-30T09:21:49;101132.34;;;27.96;46.42
77537;BME280;67783;51.656;16.106;2023-07-30T09:24:48;101133.63;;;27.93;46.41
77537;BME280;67783;51.656;16.106;2023-07-30T09:27:51;101132.34;;;27.96;46.87
77537;BME280;67783;51.656;16.106;2023-07-30T09:31:01;101136.80;;;27.97;46.63
77537;BME280;67783;51.656;16.106;2023-07-30T09:34:03;101130.44;;;28.03;44.95
77537;BME280;67783;51.656;16.106;2023-07-30T09:37:05;101143.38;;;28.09;46.27
77537;BME280;67783;51.656;16.106;2023-07-30T09:43:32;101143.38;;;28.16;43.49
77537;BME280;67783;51.656;16.106;2023-07-30T09:46:43;101142.73;;;28.14;45.69
77537;BME280;67783;51.656;16.106;2023-07-30T09:49:51;101145.08;;;28.10;45.43
77537;BME280;67783;51.656;16.106;2023-07-30T09:52:54;101147.15;;;28.08;44.43
77537;BME280;67783;51.656;16.106;2023-07-30T09:55:55;101141.27;;;28.11;45.91
77537;BME280;67783;51.656;16.106;2023-07-30T09:59:00;101134.66;;;28.06;45.12
77537;BME280;67783;51.656;16.106;2023-07-30T10:02:06;101128.50;;;28.04;45.78
77537;BME280;67783;51.656;16.106;2023-07-30T10:05:18;101129.59;;;28.03;45.25
77537;BME280;67783;51.656;16.106;2023-07-30T10:08:24;101130.44;;;27.96;44.33
77537;BME280;67783;51.656;16.106;2023-07-30T10:11:33;101125.37;;;27.93;45.16
77537;BME280;67783;51.656;16.106;2023-07-30T10:14:38;101116.45;;;27.91;45.04
77537;BME280;67783;51.656;16.106;2023-07-30T10:17:44;101119.41;;;27.96;42.62
77537;BME280;67783;51.656;16.106;2023-07-30T10:20:54;101127.69;;;28.03;45.04
77537;BME280;67783;51.656;16.106;2023-07-30T10:24:03;101121.32;;;28.03;44.79
77537;BME280;67783;51.656;16.106;2023-07-30T10:27:09;101117.48;;;28.04;43.00
77537;BME280;67783;51.656;16.106;2023-07-30T10:30:17;101124.08;;;28.09;45.13
77537;BME280;67783;51.656;16.106;2023-07-30T10:33:20;101111.99;;;28.10;44.60
77537;BME280;67783;51.656;16.106;2023-07-30T10:36:42;101110.70;;;28.13;43.16
77537;BME280;67783;51.656;16.106;2023-07-30T10:39:50;101115.59;;;28.17;44.88
77537;BME280;67783;51.656;16.106;2023-07-30T10:42:52;101109.62;;;28.20;44.63
77537;BME280;67783;51.656;16.106;2023-07-30T10:46:00;101104.95;;;28.21;42.83
77537;BME280;67783;51.656;16.106;2023-07-30T10:49:03;101105.16;;;28.32;44.65
77537;BME280;67783;51.656;16.106;2023-07-30T10:52:07;101107.66;;;28.40;43.94
77537;BME280;67783;51.656;16.106;2023-07-30T10:55:09;101094.88;;;28.53;44.15
77537;BME280;67783;51.656;16.106;2023-07-30T10:58:10;101093.96;;;28.65;43.92
77537;BME280;67783;51.656;16.106;2023-07-30T11:01:20;101063.41;;;28.60;41.15
77537;BME280;67783;51.656;16.106;2023-07-30T11:04:25;101083.28;;;28.82;43.43
77537;BME280;67783;51.656;16.106;2023-07-30T11:07:26;101077.31;;;28.85;42.83
77537;BME280;67783;51.656;16.106;2023-07-30T11:10:30;101072.98;;;28.96;43.32
77537;BME280;67783;51.656;16.106;2023-07-30T11:16:50;101059.36;;;29.01;41.08
77537;BME280;67783;51.656;16.106;2023-07-30T11:19:52;101059.30;;;29.07;43.02
77537;BME280;67783;51.656;16.106;2023-07-30T11:22:54;101055.93;;;29.05;42.82
77537;BME280;67783;51.656;16.106;2023-07-30T11:25:55;101049.74;;;29.10;43.10
77537;BME280;67783;51.656;16.106;2023-07-30T11:28:56;101057.92;;;29.23;42.79
77537;BME280;67783;51.656;16.106;2023-07-30T11:32:01;101050.45;;;29.30;40.79
77537;BME280;67783;51.656;16.106;2023-07-30T11:35:05;101047.58;;;29.43;42.53
77537;BME280;67783;51.656;16.106;2023-07-30T11:38:08;101050.36;;;29.61;41.87
77537;BME280;67783;51.656;16.106;2023-07-30T11:41:16;101039.97;;;29.82;41.87
77537;BME280;67783;51.656;16.106;2023-07-30T11:44:33;101032.75;;;29.99;41.59
77537;BME280;67783;51.656;16.106;2023-07-30T11:51:17;101023.83;;;30.15;40.41
77537;BME280;67783;51.656;16.106;2023-07-30T11:54:34;101025.91;;;30.19;39.55
77537;BME280;67783;51.656;16.106;2023-07-30T11:57:57;101016.05;;;30.23;40.96
77537;BME280;67783;51.656;16.106;2023-07-30T12:01:18;101017.28;;;30.28;40.79
77537;BME280;67783;51.656;16.106;2023-07-30T12:04:25;101016.37;;;30.34;38.16
77537;BME280;67783;51.656;16.106;2023-07-30T12:08:00;101001.35;;;30.41;37.75
77537;BME280;67783;51.656;16.106;2023-07-30T12:11:07;100999.87;;;30.57;40.31
77537;BME280;67783;51.656;16.106;2023-07-30T12:17:36;100977.52;;;30.40;38.26
77537;BME280;67783;51.656;16.106;2023-07-30T12:20:50;100995.10;;;30.64;39.41
77537;BME280;67783;51.656;16.106;2023-07-30T12:24:04;100996.55;;;30.66;39.09
77537;BME280;67783;51.656;16.106;2023-07-30T12:27:09;101001.80;;;30.56;36.86
77537;BME280;67783;51.656;16.106;2023-07-30T12:30:20;101000.99;;;30.38;39.20
77537;BME280;67783;51.656;16.106;2023-07-30T12:33:24;100991.49;;;30.15;39.27
77537;BME280;67783;51.656;16.106;2023-07-30T12:36:47;101005.04;;;29.87;38.57
77537;BME280;67783;51.656;16.106;2023-07-30T12:39:53;101015.53;;;29.60;40.06
77537;BME280;67783;51.656;16.106;2023-07-30T12:43:03;101014.76;;;29.28;41.20
77537;BME280;67783;51.656;16.106;2023-07-30T12:46:10;101010.62;;;28.88;43.06
77537;BME280;67783;51.656;16.106;2023-07-30T12:49:30;101006.76;;;28.58;43.11
77537;BME280;67783;51.656;16.106;2023-07-30T12:52:36;101021.33;;;28.33;44.07
77537;BME280;67783;51.656;16.106;2023-07-30T12:55:52;101025.64;;;28.16;45.31
77537;BME280;67783;51.656;16.106;2023-07-30T12:59:19;101015.08;;;28.00;48.81
77537;BME280;67783;51.656;16.106;2023-07-30T13:02:28;101008.30;;;27.96;46.52
77537;BME280;67783;51.656;16.106;2023-07-30T13:05:29;101010.90;;;27.91;46.94
77537;BME280;67783;51.656;16.106;2023-07-30T13:08:39;101017.46;;;27.90;49.44
77537;BME280;67783;51.656;16.106;2023-07-30T13:11:41;101005.15;;;27.99;47.18
77537;BME280;67783;51.656;16.106;2023-07-30T13:14:43;101026.09;;;28.13;48.23
77537;BME280;67783;51.656;16.106;2023-07-30T13:17:47;101020.27;;;28.34;46.93
77537;BME280;67783;51.656;16.106;2023-07-30T13:20:57;101027.82;;;28.52;46.82
77537;BME280;67783;51.656;16.106;2023-07-30T13:24:04;101020.74;;;28.69;46.69
77537;BME280;67783;51.656;16.106;2023-07-30T13:27:08;101027.17;;;28.88;46.20
77537;BME280;67783;51.656;16.106;2023-07-30T13:30:15;101033.27;;;28.97;46.08
77537;BME280;67783;51.656;16.106;2023-07-30T13:33:31;101027.08;;;29.01;44.44
77537;BME280;67783;51.656;16.106;2023-07-30T13:36:52;101030.45;;;29.03;44.98
77537;BME280;67783;51.656;16.106;2023-07-30T13:39:45;101036.21;;;29.02;44.45
77537;BME280;67783;51.656;16.106;2023-07-30T13:42:52;101029.63;;;29.03;42.45
77537;BME280;67783;51.656;16.106;2023-07-30T13:45:53;101031.09;;;29.05;43.97
77537;BME280;67783;51.656;16.106;2023-07-30T13:48:59;101037.09;;;28.96;44.11
77537;BME280;67783;51.656;16.106;2023-07-30T13:52:00;101048.02;;;28.84;44.47
77537;BME280;67783;51.656;16.106;2023-07-30T13:55:02;101051.55;;;28.60;43.32
77537;BME280;67783;51.656;16.106;2023-07-30T13:58:12;101058.27;;;28.32;39.32
77537;BME280;67783;51.656;16.106;2023-07-30T14:01:14;101039.02;;;28.19;42.60
77537;BME280;67783;51.656;16.106;2023-07-30T14:04:16;101029.70;;;28.14;41.98
77537;BME280;67783;51.656;16.106;2023-07-30T14:07:18;101018.27;;;28.10;42.44
77537;BME280;67783;51.656;16.106;2023-07-30T14:10:23;101014.02;;;28.08;42.15
77537;BME280;67783;51.656;16.106;2023-07-30T14:13:36;101002.98;;;28.14;40.71
77537;BME280;67783;51.656;16.106;2023-07-30T14:16:51;101001.44;;;28.25;42.26
77537;BME280;67783;51.656;16.106;2023-07-30T14:20:00;100989.94;;;28.34;42.05
77537;BME280;67783;51.656;16.106;2023-07-30T14:23:10;100982.04;;;28.44;41.86
77537;BME280;67783;51.656;16.106;2023-07-30T14:26:13;100977.91;;;28.54;42.29
77537;BME280;67783;51.656;16.106;2023-07-30T14:32:45;100973.38;;;28.66;42.65
77537;BME280;67783;51.656;16.106;2023-07-30T14:36:01;100983.35;;;28.67;42.34
77537;BME280;67783;51.656;16.106;2023-07-30T14:39:21;100972.56;;;28.65;42.72
77537;BME280;67783;51.656;16.106;2023-07-30T14:42:26;100974.74;;;28.57;42.85
77537;BME280;67783;51.656;16.106;2023-07-30T14:45:30;100988.08;;;28.60;42.99
77537;BME280;67783;51.656;16.106;2023-07-30T14:52:06;100993.99;;;28.63;42.89
77537;BME280;67783;51.656;16.106;2023-07-30T14:55:26;101004.82;;;28.65;43.00
77537;BME280;67783;51.656;16.106;2023-07-30T14:58:29;101004.82;;;28.65;42.26
77537;BME280;67783;51.656;16.106;2023-07-30T15:01:31;101002.91;;;28.65;43.07
77537;BME280;67783;51.656;16.106;2023-07-30T15:11:54;101010.10;;;28.73;42.98
77537;BME280;67783;51.656;16.106;2023-07-30T15:18:38;101011.47;;;28.88;42.55
77537;BME280;67783;51.656;16.106;2023-07-30T15:21:47;101002.24;;;29.01;42.86
77537;BME280;67783;51.656;16.106;2023-07-30T15:25:09;101012.36;;;29.07;42.65
77537;BME280;67783;51.656;16.106;2023-07-30T15:28:19;100991.52;;;29.11;41.83
77537;BME280;67783;51.656;16.106;2023-07-30T15:31:33;100999.30;;;29.21;42.58
77537;BME280;67783;51.656;16.106;2023-07-30T15:35:00;100992.03;;;29.26;42.54
77537;BME280;67783;51.656;16.106;2023-07-30T15:38:25;101000.06;;;29.34;42.42
77537;BME280;67783;51.656;16.106;2023-07-30T15:48:41;100979.58;;;29.17;42.29
77537;BME280;67783;51.656;16.106;2023-07-30T15:55:41;100989.67;;;29.05;42.28
77537;BME280;67783;51.656;16.106;2023-07-30T15:58:43;100986.73;;;29.00;42.98
77537;BME280;67783;51.656;16.106;2023-07-30T16:02:01;100991.76;;;28.85;43.18
77537;BME280;67783;51.656;16.106;2023-07-30T16:05:15;100984.00;;;28.69;43.68
77537;BME280;67783;51.656;16.106;2023-07-30T16:08:17;100996.81;;;28.57;44.01
77537;BME280;67783;51.656;16.106;2023-07-30T16:14:59;100996.21;;;28.10;46.20
77537;BME280;67783;51.656;16.106;2023-07-30T16:21:40;101042.13;;;27.32;47.98
77537;BME280;67783;51.656;16.106;2023-07-30T16:25:07;101046.36;;;26.95;49.52
77537;BME280;67783;51.656;16.106;2023-07-30T16:28:08;101059.60;;;26.72;47.84
77537;BME280;67783;51.656;16.106;2023-07-30T16:34:33;101004.63;;;26.18;49.93
77537;BME280;67783;51.656;16.106;2023-07-30T16:45:10;101008.10;;;25.86;53.72
77537;BME280;67783;51.656;16.106;2023-07-30T16:48:20;101017.84;;;25.88;50.66
77537;BME280;67783;51.656;16.106;2023-07-30T16:51:27;101023.95;;;25.84;51.16
77537;BME280;67783;51.656;16.106;2023-07-30T16:54:33;101032.81;;;25.86;55.23
77537;BME280;67783;51.656;16.106;2023-07-30T16:57:35;101040.45;;;25.90;51.95
77537;BME280;67783;51.656;16.106;2023-07-30T17:00:39;101048.67;;;25.84;53.01
77537;BME280;67783;51.656;16.106;2023-07-30T17:03:41;101048.67;;;25.84;52.47
77537;BME280;67783;51.656;16.106;2023-07-30T17:06:43;101053.41;;;25.68;53.77
77537;BME280;67783;51.656;16.106;2023-07-30T17:09:53;101047.01;;;25.55;58.29
77537;BME280;67783;51.656;16.106;2023-07-30T17:12:56;101046.91;;;25.48;54.25
77537;BME280;67783;51.656;16.106;2023-07-30T17:16:03;101062.38;;;25.28;56.67
77537;BME280;67783;51.656;16.106;2023-07-30T17:19:06;101067.12;;;25.13;55.43
77537;BME280;67783;51.656;16.106;2023-07-30T17:22:07;101068.70;;;25.01;55.78
77537;BME280;67783;51.656;16.106;2023-07-30T17:25:14;101077.42;;;24.90;60.07
77537;BME280;67783;51.656;16.106;2023-07-30T17:28:16;101075.63;;;24.82;56.14
77537;BME280;67783;51.656;16.106;2023-07-30T17:31:18;101082.49;;;24.71;57.09
77537;BME280;67783;51.656;16.106;2023-07-30T17:34:20;101084.96;;;24.66;55.94
77537;BME280;67783;51.656;16.106;2023-07-30T17:37:22;101098.12;;;24.56;56.59
77537;BME280;67783;51.656;16.106;2023-07-30T17:40:37;101116.78;;;24.46;58.31
77537;BME280;67783;51.656;16.106;2023-07-30T17:43:40;101119.63;;;24.38;56.03
77537;BME280;67783;51.656;16.106;2023-07-30T17:46:48;101121.62;;;24.29;56.49
77537;BME280;67783;51.656;16.106;2023-07-30T17:49:54;101131.45;;;24.24;56.08
77537;BME280;67783;51.656;16.106;2023-07-30T17:53:04;101138.41;;;24.12;56.33
77537;BME280;67783;51.656;16.106;2023-07-30T17:56:06;101146.42;;;23.99;58.28